Time;durP1;ratioP1;P1;durP2;ratioP2;P2;SDS_P1;SDS_P2;PMS_P1;PMS_P2;Temp;Humidity;BMP_temperature;BMP_pressure;BME280_temperature;BME280_humidity;BME280_pressure;Samples;Min_cycle;Max_cycle;Signal;HPM_P1;HPM_P2
2023/10/26 00:02:04;;;;;;;11.27;10.27;;;;;;;11.74;100.00;97638.31;6126870;23;20258;-85
2023/10/26 00:04:32;;;;;;;10.67;9.77;;;;;;;11.72;100.00;97632.38;6124169;23;20202;-85
2023/10/26 00:07:00;;;;;;;10.90;10.00;;;;;;;11.70;100.00;97629.19;6101536;23;20163;-86
2023/10/26 00:09:35;;;;;;;10.97;9.97;;;;;;;11.67;100.00;97632.41;6123897;23;20205;-85
2023/10/26 00:12:06;;;;;;;11.10;10.20;;;;;;;11.62;100.00;97637.81;6101108;23;20178;-85
2023/10/26 00:14:35;;;;;;;11.97;10.87;;;;;;;11.56;100.00;97647.75;6101635;23;20180;-85
2023/10/26 00:17:03;;;;;;;10.47;9.57;;;;;;;11.50;100.00;97643.47;6125501;23;20178;-85
2023/10/26 00:19:35;;;;;;;10.90;10.00;;;;;;;11.45;100.00;97640.81;6125275;23;20171;-86
2023/10/26 00:22:03;;;;;;;10.37;9.47;;;;;;;11.41;100.00;97650.47;6126707;23;20672;-86
2023/10/26 00:24:34;;;;;;;10.97;10.07;;;;;;;11.35;100.00;97651.56;6101264;23;20255;-85
2023/10/26 00:27:02;;;;;;;10.13;9.33;;;;;;;11.26;100.00;97651.31;6077284;23;20165;-84
2023/10/26 00:29:35;;;;;;;11.23;10.13;;;;;;;11.16;100.00;97654.00;6077565;23;20161;-85
2023/10/26 00:32:06;;;;;;;10.20;9.37;;;;;;;11.13;100.00;97656.44;6126874;23;20168;-85
2023/10/26 00:34:42;;;;;;;10.50;9.70;;;;;;;11.11;100.00;97645.97;6126453;23;20150;-85
2023/10/26 00:37:10;;;;;;;10.27;9.37;;;;;;;11.07;100.00;97647.59;6125720;23;20203;-85
2023/10/26 00:39:41;;;;;;;9.90;9.10;;;;;;;11.04;100.00;97646.25;6125052;23;20172;-84
2023/10/26 00:42:11;;;;;;;10.60;9.77;;;;;;;10.98;100.00;97644.66;6125444;23;20637;-86
2023/10/26 00:44:47;;;;;;;10.33;9.53;;;;;;;10.91;100.00;97644.16;6125107;23;20592;-85
2023/10/26 00:47:18;;;;;;;10.20;9.40;;;;;;;10.88;100.00;97641.97;6126523;23;20223;-85
2023/10/26 00:49:48;;;;;;;10.83;9.93;;;;;;;10.82;100.00;97647.63;6077106;23;20231;-85
2023/10/26 00:52:25;;;;;;;10.63;9.73;;;;;;;10.77;100.00;97647.63;6125081;23;20169;-84
2023/10/26 00:54:59;;;;;;;10.43;9.53;;;;;;;10.73;100.00;97658.06;6101093;23;20214;-84
2023/10/26 00:57:36;;;;;;;10.00;9.17;;;;;;;10.71;100.00;97657.53;6103309;23;20707;-85
2023/10/26 01:00:07;;;;;;;9.70;8.90;;;;;;;10.68;100.00;97670.66;6101219;23;20175;-85
2023/10/26 01:02:36;;;;;;;10.07;9.17;;;;;;;10.69;100.00;97697.16;6101276;23;20180;-85
2023/10/26 01:05:05;;;;;;;10.90;9.90;;;;;;;10.66;100.00;97694.22;6100555;23;20208;-85
2023/10/26 01:07:36;;;;;;;11.83;10.60;;;;;;;10.67;100.00;97698.50;6124997;23;20682;-85
2023/10/26 01:10:14;;;;;;;10.10;9.30;;;;;;;10.65;100.00;97695.28;6125024;23;20658;-85
2023/10/26 01:12:56;;;;;;;11.37;10.27;;;;;;;10.59;100.00;97705.97;6126078;23;20150;-84
2023/10/26 01:15:29;;;;;;;10.57;9.67;;;;;;;10.52;100.00;97715.34;6102433;23;20190;-84
2023/10/26 01:18:01;;;;;;;10.77;9.87;;;;;;;10.46;100.00;97706.50;6100873;23;20196;-85
2023/10/26 01:20:29;;;;;;;11.20;10.23;;;;;;;10.43;100.00;97698.22;6124937;23;20196;-85
2023/10/26 01:23:01;;;;;;;11.07;10.17;;;;;;;10.39;100.00;97694.44;6101715;23;20258;-84
2023/10/26 01:25:35;;;;;;;11.93;10.93;;;;;;;10.34;100.00;97689.91;6101684;23;20198;-85
2023/10/26 01:28:07;;;;;;;10.77;9.93;;;;;;;10.28;100.00;97693.63;6101988;23;20621;-86
2023/10/26 01:30:40;;;;;;;11.53;10.63;;;;;;;10.23;100.00;97690.94;6101434;23;20204;-85
2023/10/26 01:33:13;;;;;;;11.07;10.17;;;;;;;10.19;100.00;97699.75;6077861;23;20175;-85
2023/10/26 01:35:56;;;;;;;11.13;10.13;;;;;;;10.18;100.00;97704.28;6079902;23;20168;-86
2023/10/26 01:38:27;;;;;;;10.50;9.60;;;;;;;10.11;100.00;97703.72;6101684;23;20207;-85
2023/10/26 01:40:55;;;;;;;10.90;9.90;;;;;;;10.07;100.00;97708.00;6100411;23;20240;-85
2023/10/26 01:43:24;;;;;;;14.97;13.50;;;;;;;10.04;100.00;97709.31;6100803;23;20630;-85
2023/10/26 01:45:51;;;;;;;13.70;12.40;;;;;;;10.00;100.00;97712.75;6100646;23;20174;-84
2023/10/26 01:48:20;;;;;;;12.33;11.27;;;;;;;10.02;100.00;97702.63;6100911;23;20260;-86
2023/10/26 01:50:47;;;;;;;12.90;11.70;;;;;;;9.97;100.00;97714.09;6100245;23;20218;-85
2023/10/26 01:53:17;;;;;;;12.90;11.73;;;;;;;9.97;100.00;97705.28;6100323;23;20166;-85
2023/10/26 01:55:47;;;;;;;13.03;11.83;;;;;;;9.95;100.00;97718.09;6124780;23;20607;-87
2023/10/26 01:58:18;;;;;;;12.47;11.40;;;;;;;9.92;100.00;97719.44;6102043;23;20168;-87
2023/10/26 02:00:48;;;;;;;12.97;11.67;;;;;;;9.88;100.00;97710.34;6100331;23;20171;-85
2023/10/26 02:03:18;;;;;;;14.27;12.83;;;;;;;9.87;100.00;97722.09;6124788;23;20653;-84
2023/10/26 02:05:46;;;;;;;13.67;12.37;;;;;;;9.83;100.00;97701.47;6100572;23;20286;-85
2023/10/26 02:08:22;;;;;;;14.10;12.70;;;;;;;9.84;100.00;97711.13;6124798;23;20599;-85
2023/10/26 02:10:49;;;;;;;13.00;11.80;;;;;;;9.81;100.00;97704.41;6076500;23;20650;-85
2023/10/26 02:13:19;;;;;;;13.63;12.33;;;;;;;9.80;100.00;97710.81;6100730;23;20172;-86
2023/10/26 02:15:47;;;;;;;12.73;11.57;;;;;;;9.77;100.00;97710.53;6100735;23;20222;-86
2023/10/26 02:18:15;;;;;;;12.73;11.63;;;;;;;9.73;100.00;97707.59;6124413;23;20177;-86
2023/10/26 02:20:44;;;;;;;13.03;11.93;;;;;;;9.77;100.00;97710.53;6124643;23;20242;-86
2023/10/26 02:23:21;;;;;;;12.23;11.13;;;;;;;9.77;100.00;97705.19;6125694;23;20637;-83
2023/10/26 02:25:52;;;;;;;12.90;11.60;;;;;;;9.79;100.00;97709.22;6124321;23;20163;-86
2023/10/26 02:28:20;;;;;;;12.10;11.10;;;;;;;9.86;100.00;97717.00;6124392;23;20172;-85
2023/10/26 02:30:51;;;;;;;12.63;11.43;;;;;;;9.83;100.00;97704.97;6124894;23;20218;-86
2023/10/26 02:33:26;;;;;;;12.27;11.20;;;;;;;9.84;100.00;97687.03;6102010;23;20246;-85
2023/10/26 02:36:01;;;;;;;10.60;9.67;;;;;;;9.87;100.00;97705.22;6101325;23;20174;-84
2023/10/26 02:38:35;;;;;;;10.53;9.63;;;;;;;9.86;100.00;97690.25;6101112;23;20254;-84
2023/10/26 02:41:03;;;;;;;8.53;7.73;;;;;;;9.92;100.00;97681.19;6101145;23;20171;-83
2023/10/26 02:43:34;;;;;;;4.13;3.83;;;;;;;10.02;100.00;97681.22;6076898;23;20171;-82
2023/10/26 02:46:05;;;;;;;2.40;2.20;;;;;;;10.13;100.00;97698.91;6078129;23;20156;-83
2023/10/26 02:48:40;;;;;;;2.20;2.00;;;;;;;10.21;100.00;97693.09;6101000;23;20230;-86
2023/10/26 02:51:09;;;;;;;1.20;1.10;;;;;;;10.36;100.00;97686.97;6101092;23;20188;-84
2023/10/26 02:53:39;;;;;;;1.23;1.00;;;;;;;10.43;100.00;97674.91;6124448;23;20179;-86
2023/10/26 02:56:06;;;;;;;1.17;0.70;;;;;;;10.98;100.00;97655.38;6124806;23;20175;-82
2023/10/26 02:58:40;;;;;;;0.63;0.53;;;;;;;11.41;100.00;97643.22;6100641;23;20258;-83
2023/10/26 03:01:10;;;;;;;0.87;0.57;;;;;;;11.62;100.00;97648.53;6100768;23;20162;-83
2023/10/26 03:03:37;;;;;;;0.63;0.50;;;;;;;12.14;100.00;97631.94;6100076;23;20175;-83
2023/10/26 03:06:15;;;;;;;0.80;0.50;;;;;;;12.37;100.00;97639.28;6100591;23;20258;-82
2023/10/26 03:08:44;;;;;;;0.40;0.40;;;;;;;12.39;100.00;97636.34;6124235;23;20194;-83
2023/10/26 03:11:11;;;;;;;0.40;0.40;;;;;;;12.29;100.00;97645.28;6124084;23;20246;-82
2023/10/26 03:13:40;;;;;;;0.40;0.40;;;;;;;12.26;100.00;97643.16;6100325;23;20173;-84
2023/10/26 03:16:07;;;;;;;0.83;0.40;;;;;;;12.25;100.00;97636.16;6124400;23;20625;-83
2023/10/26 03:18:39;;;;;;;0.43;0.43;;;;;;;12.26;100.00;97633.22;6100494;23;20531;-83
2023/10/26 03:21:14;;;;;;;1.23;0.50;;;;;;;12.32;100.00;97637.44;6124455;23;20192;-83
2023/10/26 03:23:43;;;;;;;0.70;0.50;;;;;;;12.30;100.00;97647.69;6101221;23;20201;-83
2023/10/26 03:26:11;;;;;;;0.33;0.33;;;;;;;12.27;100.00;97644.75;6100539;23;20256;-83
2023/10/26 03:28:40;;;;;;;1.00;0.33;;;;;;;12.33;100.00;97644.44;6100049;23;20205;-83
2023/10/26 03:31:13;;;;;;;0.57;0.40;;;;;;;12.20;100.00;97650.44;6125578;23;20194;-83
2023/10/26 03:33:46;;;;;;;0.37;0.37;;;;;;;12.26;100.00;97643.16;6124126;23;20531;-83
2023/10/26 03:36:16;;;;;;;0.50;0.43;;;;;;;12.27;100.00;97647.44;6077096;23;20173;-83
2023/10/26 03:38:46;;;;;;;0.43;0.43;;;;;;;12.20;100.00;97653.09;6076836;23;20176;-83
2023/10/26 03:41:15;;;;;;;0.60;0.40;;;;;;;12.29;100.00;97648.75;6124354;23;20169;-83
2023/10/26 03:43:43;;;;;;;1.07;0.40;;;;;;;12.32;100.00;97648.19;6123651;23;20173;-83
2023/10/26 03:46:16;;;;;;;0.40;0.40;;;;;;;12.27;100.00;97650.13;6078477;23;20256;-84
2023/10/26 03:48:46;;;;;;;0.50;0.40;;;;;;;12.30;100.00;97649.56;6099985;23;20188;-85
2023/10/26 03:51:20;;;;;;;0.37;0.30;;;;;;;12.26;100.00;97643.16;6077146;23;20633;-83
2023/10/26 03:54:09;;;;;;;0.70;0.50;;;;;;;12.28;100.00;97633.72;6123356;23;20286;-83
2023/10/26 03:56:40;;;;;;;0.57;0.47;;;;;;;12.23;100.00;97638.31;6123798;23;20197;-85
2023/10/26 03:59:13;;;;;;;0.50;0.50;;;;;;;12.29;100.00;97638.03;6123892;23;20180;-83
2023/10/26 04:01:41;;;;;;;0.40;0.30;;;;;;;12.30;100.00;97633.44;6101158;23;20169;-85
2023/10/26 04:04:11;;;;;;;0.67;0.40;;;;;;;12.31;100.00;97633.19;6077248;23;20178;-83
2023/10/26 04:06:41;;;;;;;0.40;0.40;;;;;;;12.35;100.00;97634.22;6102366;23;20240;-84
2023/10/26 04:09:15;;;;;;;0.50;0.30;;;;;;;12.40;100.00;97637.94;6079072;23;20176;-84
2023/10/26 04:11:46;;;;;;;0.47;0.30;;;;;;;12.45;100.00;97635.25;6102327;23;20190;-83
2023/10/26 04:14:16;;;;;;;0.40;0.30;;;;;;;12.39;100.00;97628.28;6127141;23;20210;-85
2023/10/26 04:16:47;;;;;;;0.47;0.40;;;;;;;12.35;100.00;97631.53;6125895;23;20689;-83
2023/10/26 04:19:15;;;;;;;1.00;0.30;;;;;;;12.46;100.00;97624.19;6102675;23;20175;-83
2023/10/26 04:21:42;;;;;;;0.30;0.27;;;;;;;12.45;100.00;97632.56;6077815;23;20196;-82
2023/10/26 04:24:14;;;;;;;0.30;0.30;;;;;;;12.46;100.00;97639.53;6078180;23;20173;-83
2023/10/26 04:26:43;;;;;;;0.30;0.30;;;;;;;12.45;100.00;97633.34;6126121;23;20171;-83
2023/10/26 04:29:10;;;;;;;0.70;0.40;;;;;;;12.39;100.00;97631.78;6077304;23;20166;-82
2023/10/26 04:31:41;;;;;;;0.50;0.30;;;;;;;12.34;100.00;97632.63;6102206;23;20238;-83
2023/10/26 04:34:12;;;;;;;0.50;0.30;;;;;;;12.30;100.00;97636.13;6102408;23;20163;-82
2023/10/26 04:36:44;;;;;;;1.00;0.40;;;;;;;12.26;100.00;97635.91;6127109;23;20606;-83
2023/10/26 04:39:23;;;;;;;0.77;0.30;;;;;;;12.34;100.00;97642.56;6101821;23;20175;-83
2023/10/26 04:41:54;;;;;;;0.30;0.30;;;;;;;12.32;100.00;97637.44;6125340;23;20170;-82
2023/10/26 04:44:30;;;;;;;0.50;0.40;;;;;;;12.30;100.00;97633.44;6124951;23;20169;-82
2023/10/26 04:46:57;;;;;;;0.30;0.30;;;;;;;12.30;100.00;97633.44;6078074;23;20675;-83
2023/10/26 04:49:26;;;;;;;0.30;0.30;;;;;;;12.25;100.00;97642.34;6125094;23;20173;-82
2023/10/26 04:51:58;;;;;;;2.30;0.40;;;;;;;12.17;100.00;97640.25;6126525;23;20183;-83
2023/10/26 04:54:28;;;;;;;0.73;0.40;;;;;;;12.13;100.00;97643.78;6100928;23;20258;-83
2023/10/26 04:57:05;;;;;;;0.30;0.30;;;;;;;12.03;100.00;97641.94;6125745;23;20505;-83
2023/10/26 04:59:37;;;;;;;0.93;0.20;;;;;;;11.99;100.00;97642.78;6126505;23;20186;-83
2023/10/26 05:02:04;;;;;;;0.50;0.30;;;;;;;11.88;100.00;97640.13;6125399;23;20173;-83
2023/10/26 05:04:39;;;;;;;0.73;0.40;;;;;;;11.85;100.00;97637.97;6101725;23;20205;-83
2023/10/26 05:07:07;;;;;;;0.30;0.30;;;;;;;11.79;100.00;97635.63;6102204;23;20181;-84
2023/10/26 05:09:36;;;;;;;0.70;0.40;;;;;;;11.68;100.00;97628.66;6101243;23;20174;-84
2023/10/26 05:12:11;;;;;;;1.27;0.40;;;;;;;11.58;100.00;97636.72;6100915;23;20209;-83
2023/10/26 05:14:39;;;;;;;0.23;0.23;;;;;;;11.50;100.00;97648.84;6076671;23;20182;-83
2023/10/26 05:17:07;;;;;;;0.30;0.30;;;;;;;11.43;100.00;97645.66;6100687;23;20254;-83
2023/10/26 05:19:39;;;;;;;0.60;0.40;;;;;;;11.36;100.00;97645.94;6100948;23;20645;-83
2023/10/26 05:22:08;;;;;;;0.60;0.40;;;;;;;11.31;100.00;97651.31;6101691;23;20194;-84
2023/10/26 05:24:42;;;;;;;0.47;0.30;;;;;;;11.26;100.00;97648.63;6101701;23;20605;-82
2023/10/26 05:27:11;;;;;;;0.50;0.40;;;;;;;11.22;100.00;97652.94;6101216;23;20643;-83
2023/10/26 05:29:39;;;;;;;0.50;0.30;;;;;;;11.16;100.00;97651.31;6100806;23;20178;-83
2023/10/26 05:32:09;;;;;;;0.50;0.50;;;;;;;11.11;100.00;97658.56;6077092;23;20202;-84
2023/10/26 05:34:37;;;;;;;0.40;0.40;;;;;;;11.08;100.00;97670.63;6076687;23;20177;-83
2023/10/26 05:37:07;;;;;;;0.40;0.40;;;;;;;11.06;100.00;97666.63;6076466;23;20235;-85
2023/10/26 05:39:37;;;;;;;0.80;0.60;;;;;;;11.01;100.00;97662.88;6099956;23;20263;-84
2023/10/26 05:42:05;;;;;;;0.50;0.50;;;;;;;10.98;100.00;97670.66;6101024;23;20177;-83
2023/10/26 05:44:35;;;;;;;2.43;0.60;;;;;;;10.97;100.00;97674.38;6076971;23;20570;-84
2023/10/26 05:47:05;;;;;;;1.43;0.63;;;;;;;10.97;100.00;97679.75;6101561;23;20168;-83
2023/10/26 05:49:33;;;;;;;0.90;0.70;;;;;;;10.98;100.00;97676.00;6076975;23;20177;-84
2023/10/26 05:52:06;;;;;;;1.17;0.70;;;;;;;11.00;100.00;97679.22;6078863;23;20189;-84
2023/10/26 05:54:37;;;;;;;1.00;0.90;;;;;;;10.98;100.00;97674.13;6101284;23;20623;-83
2023/10/26 05:57:10;;;;;;;0.83;0.83;;;;;;;11.01;100.00;97684.28;6101188;23;20215;-84
2023/10/26 05:59:39;;;;;;;1.10;0.93;;;;;;;11.02;100.00;97683.22;6077871;23;20263;-83
2023/10/26 06:02:09;;;;;;;1.47;0.70;;;;;;;11.03;100.00;97689.41;6124852;23;20165;-84
2023/10/26 06:04:43;;;;;;;2.33;0.80;;;;;;;11.04;100.00;97682.97;6077129;23;20181;-83
2023/10/26 06:07:11;;;;;;;1.37;1.27;;;;;;;11.11;100.00;97694.22;6077748;23;20179;-85
2023/10/26 06:09:43;;;;;;;1.47;1.33;;;;;;;11.14;100.00;97687.53;6101480;23;20195;-83
2023/10/26 06:12:12;;;;;;;1.57;1.40;;;;;;;11.21;100.00;97706.81;6100761;23;20188;-85
2023/10/26 06:14:43;;;;;;;1.50;1.00;;;;;;;11.25;100.00;97700.63;6101201;23;20173;-84
2023/10/26 06:17:11;;;;;;;1.20;1.10;;;;;;;11.27;100.00;97703.84;6077647;23;20199;-83
2023/10/26 06:19:38;;;;;;;0.93;0.90;;;;;;;11.30;100.00;97694.44;6100675;23;20224;-83
2023/10/26 06:22:06;;;;;;;1.23;1.13;;;;;;;11.37;100.00;97695.00;6100210;23;20279;-85
2023/10/26 06:24:36;;;;;;;1.47;1.33;;;;;;;11.43;100.00;97701.97;6100862;23;20259;-84
2023/10/26 06:27:07;;;;;;;1.60;1.50;;;;;;;11.46;100.00;97707.56;6099942;23;20171;-83
2023/10/26 06:29:38;;;;;;;1.60;1.50;;;;;;;11.48;100.00;97713.47;6102058;23;20251;-82
2023/10/26 06:32:05;;;;;;;2.33;1.33;;;;;;;11.59;100.00;97708.06;6076236;23;20189;-85
2023/10/26 06:34:36;;;;;;;2.67;1.50;;;;;;;11.69;100.00;97708.06;6077618;23;20172;-83
2023/10/26 06:37:04;;;;;;;2.93;1.90;;;;;;;11.76;100.00;97709.38;6100722;23;20172;-83
2023/10/26 06:39:47;;;;;;;2.00;1.40;;;;;;;11.84;100.00;97721.47;6126108;23;20151;-82
2023/10/26 06:42:17;;;;;;;1.70;1.47;;;;;;;11.94;100.00;97721.44;6100564;23;20167;-86
2023/10/26 06:44:56;;;;;;;1.93;1.40;;;;;;;12.02;100.00;97728.09;6099827;23;20187;-82
2023/10/26 06:47:27;;;;;;;1.67;1.57;;;;;;;12.10;100.00;97736.38;6123722;23;20612;-83
2023/10/26 06:49:58;;;;;;;1.30;1.20;;;;;;;12.23;100.00;97743.03;6124154;23;20204;-84
2023/10/26 06:52:29;;;;;;;1.80;1.50;;;;;;;12.31;100.00;97734.41;6076182;23;20188;-84
2023/10/26 06:55:07;;;;;;;2.20;1.40;;;;;;;12.39;100.00;97743.75;6098727;23;20592;-83
2023/10/26 06:57:47;;;;;;;1.40;1.30;;;;;;;12.49;100.00;97735.66;6124678;23;20234;-83
2023/10/26 07:00:17;;;;;;;3.30;1.00;;;;;;;12.60;100.00;97734.50;6099992;23;20177;-83
2023/10/26 07:02:47;;;;;;;2.03;1.30;;;;;;;12.71;100.00;97730.69;6123877;23;20164;-83
2023/10/26 07:05:16;;;;;;;1.23;1.13;;;;;;;12.92;100.00;97731.34;6123416;23;20202;-83
2023/10/26 07:07:49;;;;;;;2.53;1.00;;;;;;;13.09;100.00;97727.16;6124249;23;20664;-83
2023/10/26 07:10:19;;;;;;;1.03;0.93;;;;;;;13.22;100.00;97733.81;6076134;23;20262;-83
2023/10/26 07:12:47;;;;;;;1.07;0.90;;;;;;;13.33;100.00;97735.34;6100110;23;20272;-82
2023/10/26 07:15:21;;;;;;;0.90;0.90;;;;;;;13.45;100.00;97729.56;6099423;23;20173;-83
2023/10/26 07:18:02;;;;;;;0.63;0.63;;;;;;;13.57;100.00;97732.69;6102674;23;20198;-83
2023/10/26 07:20:39;;;;;;;1.03;0.80;;;;;;;13.63;100.00;97736.91;6123309;23;20193;-83
2023/10/26 07:23:06;;;;;;;1.20;1.00;;;;;;;13.71;100.00;97732.81;6123735;23;20171;-82
2023/10/26 07:25:36;;;;;;;0.70;0.70;;;;;;;13.76;100.00;97732.75;6098820;23;20174;-83
2023/10/26 07:28:26;;;;;;;1.47;0.90;;;;;;;13.85;100.00;97734.53;6099193;23;20243;-84
2023/10/26 07:31:00;;;;;;;0.90;0.90;;;;;;;13.91;100.00;97736.06;6099642;23;20250;-82
2023/10/26 07:33:30;;;;;;;1.10;1.00;;;;;;;14.02;100.00;97734.88;6122793;23;20783;-85
2023/10/26 07:35:58;;;;;;;1.30;1.00;;;;;;;14.10;100.00;97734.22;6122352;23;20179;-83
2023/10/26 07:38:29;;;;;;;1.63;1.50;;;;;;;14.20;100.00;97740.59;6123661;23;20160;-82
2023/10/26 07:41:04;;;;;;;1.47;1.20;;;;;;;14.30;100.00;97737.78;6125271;23;20256;-83
2023/10/26 07:43:34;;;;;;;1.73;1.00;;;;;;;14.37;100.00;97738.25;6101684;23;20202;-83
2023/10/26 07:46:01;;;;;;;1.93;1.20;;;;;;;14.44;100.00;97742.19;6100594;23;20168;-83
2023/10/26 07:48:34;;;;;;;1.20;1.10;;;;;;;14.56;100.00;97738.28;6077189;23;20210;-84
2023/10/26 07:51:02;;;;;;;1.80;1.30;;;;;;;14.65;100.00;97741.91;6101105;23;20182;-83
2023/10/26 07:53:31;;;;;;;1.33;1.20;;;;;;;14.74;100.00;97746.38;6077021;23;20274;-83
2023/10/26 07:55:59;;;;;;;2.23;1.50;;;;;;;14.88;100.00;97741.03;6100961;23;20172;-83
2023/10/26 07:58:30;;;;;;;1.20;1.10;;;;;;;15.01;100.00;97739.50;6101141;23;20184;-83
2023/10/26 08:01:01;;;;;;;1.20;1.10;;;;;;;15.12;100.00;97746.31;6124714;23;20168;-83
2023/10/26 08:03:33;;;;;;;2.70;1.10;;;;;;;15.23;100.00;97742.38;6102087;23;20163;-83
2023/10/26 08:06:06;;;;;;;2.23;1.70;;;;;;;15.29;100.00;97751.97;6078405;23;20204;-82
2023/10/26 08:08:35;;;;;;;1.70;1.60;;;;;;;15.45;100.00;97747.91;6126049;23;20185;-83
2023/10/26 08:11:13;;;;;;;2.20;2.00;;;;;;;15.49;100.00;97748.91;6126020;23;20191;-82
2023/10/26 08:13:42;;;;;;;1.73;1.63;;;;;;;15.60;100.00;97752.28;6123694;23;20197;-82
2023/10/26 08:16:10;;;;;;;1.40;1.30;;;;;;;15.70;100.00;97746.69;6077027;23;20195;-83
2023/10/26 08:19:01;;;;;;;1.73;1.10;;;;;;;15.79;100.00;97737.63;6105907;23;20151;-82
2023/10/26 08:21:29;;;;;;;1.43;1.00;;;;;;;15.89;100.00;97742.03;6076505;23;20196;-83
2023/10/26 08:23:56;;;;;;;1.00;0.90;;;;;;;16.04;100.00;97749.03;6100514;23;20187;-82
2023/10/26 08:26:24;;;;;;;0.83;0.80;;;;;;;16.18;100.00;97742.53;6100263;23;20235;-82
2023/10/26 08:28:51;;;;;;;0.80;0.80;;;;;;;16.32;100.00;97737.13;6100339;23;20172;-82
2023/10/26 08:31:38;;;;;;;0.77;0.70;;;;;;;16.43;100.00;97737.69;6083374;23;20203;-83
2023/10/26 08:34:10;;;;;;;2.07;1.47;;;;;;;16.56;100.00;97732.25;6124543;23;20908;-82
2023/10/26 08:36:37;;;;;;;1.73;1.00;;;;;;;16.65;100.00;97741.31;6124013;23;20622;-83
2023/10/26 08:39:12;;;;;;;0.80;0.70;;;;;;;16.74;100.00;97741.38;6101187;23;20152;-81
2023/10/26 08:41:44;;;;;;;0.80;0.80;;;;;;;16.83;100.00;97742.25;6075989;23;20172;-81
2023/10/26 08:44:17;;;;;;;1.40;0.80;;;;;;;16.98;100.00;97733.75;6101722;23;20144;-82
2023/10/26 08:46:48;;;;;;;0.87;0.87;;;;;;;17.11;100.00;97730.22;6125081;23;20615;-82
2023/10/26 08:49:23;;;;;;;3.33;1.90;;;;;;;17.42;100.00;97735.66;6077798;23;20179;-82
2023/10/26 08:51:52;;;;;;;2.33;1.50;;;;;;;17.52;100.00;97729.19;6099213;23;20280;-82
2023/10/26 08:54:22;;;;;;;6.27;4.80;;;;;;;17.67;100.00;97733.44;6124192;23;20172;-82
2023/10/26 08:56:54;;;;;;;1.87;1.33;;;;;;;17.82;100.00;97733.06;6100820;23;20655;-82
2023/10/26 08:59:23;;;;;;;2.30;1.10;;;;;;;17.84;100.00;97737.03;6077169;23;20160;-82
2023/10/26 09:01:52;;;;;;;0.97;0.90;;;;;;;17.90;100.00;97732.28;6123942;23;20187;-82
2023/10/26 09:04:21;;;;;;;0.80;0.80;;;;;;;17.93;100.00;97739.78;6100888;23;20172;-82
2023/10/26 09:06:52;;;;;;;1.83;0.97;;;;;;;17.85;100.00;97727.81;6125139;23;20205;-82
2023/10/26 09:09:24;;;;;;;2.33;1.00;;;;;;;17.85;100.00;97727.81;6077579;23;20177;-83
2023/10/26 09:11:54;;;;;;;2.10;1.80;;;;;;;17.80;100.00;97727.94;6124963;23;20639;-82
2023/10/26 09:14:23;;;;;;;1.10;1.00;;;;;;;17.79;100.00;97723.63;6125437;23;20182;-82
2023/10/26 09:16:52;;;;;;;1.07;0.97;;;;;;;17.79;100.00;97722.81;6124007;23;20623;-83
2023/10/26 09:19:20;;;;;;;1.13;1.00;;;;;;;17.70;100.00;97733.63;6100076;23;20165;-83
2023/10/26 09:21:56;;;;;;;0.80;0.80;;;;;;;17.62;100.00;97741.69;6099858;23;20271;-83
2023/10/26 09:24:26;;;;;;;1.00;0.90;;;;;;;17.47;100.00;97740.94;6100060;23;20169;-83
2023/10/26 09:26:58;;;;;;;1.30;1.20;;;;;;;17.41;100.00;97749.50;6123522;23;20703;-84
2023/10/26 09:29:47;;;;;;;1.33;0.80;;;;;;;17.38;100.00;97750.94;6099702;23;20176;-83
2023/10/26 09:32:17;;;;;;;0.80;0.80;;;;;;;17.39;100.00;97747.13;6123186;23;20194;-83
2023/10/26 09:34:48;;;;;;;1.37;0.97;;;;;;;17.45;100.00;97747.81;6124037;23;20176;-82
2023/10/26 09:37:17;;;;;;;2.20;1.00;;;;;;;17.57;100.00;97737.19;6125046;23;20172;-82
2023/10/26 09:39:50;;;;;;;1.50;0.97;;;;;;;17.77;100.00;97736.69;6123952;23;20164;-83
2023/10/26 09:42:37;;;;;;;1.10;0.90;;;;;;;17.99;100.00;97741.25;6123583;23;20215;-81
2023/10/26 09:45:11;;;;;;;3.23;1.30;;;;;;;18.22;100.00;97737.34;6123851;23;20251;-81
2023/10/26 09:47:41;;;;;;;1.40;1.23;;;;;;;18.36;100.00;97732.59;6100758;23;20173;-81
2023/10/26 09:50:14;;;;;;;2.10;1.47;;;;;;;18.32;100.00;97728.91;6077016;23;20161;-82
2023/10/26 09:52:44;;;;;;;1.50;0.90;;;;;;;18.29;100.00;97721.41;6076238;23;20219;-82
2023/10/26 09:55:13;;;;;;;1.73;1.20;;;;;;;18.36;100.00;97721.75;6099640;23;20251;-82
2023/10/26 09:57:59;;;;;;;2.23;1.20;;;;;;;18.38;100.00;97719.50;6099211;23;20182;-82
2023/10/26 10:00:34;;;;;;;2.40;1.30;;;;;;;18.37;100.00;97717.94;6099668;23;20595;-81
2023/10/26 10:03:12;;;;;;;2.13;1.13;;;;;;;18.42;100.00;97715.06;6124391;23;20249;-82
2023/10/26 10:05:44;;;;;;;1.57;1.20;;;;;;;18.45;100.00;97716.34;6124603;23;20203;-82
2023/10/26 10:08:13;;;;;;;1.30;1.10;;;;;;;18.47;100.00;97716.81;6126834;23;20166;-83
2023/10/26 10:11:15;;;;;;;2.67;1.10;;;;;;;18.56;100.00;97719.56;6132125;23;20152;-82
2023/10/26 10:13:49;;;;;;;1.10;1.00;;;;;;;18.83;100.00;97722.00;6100247;23;20196;-82
2023/10/26 10:16:35;;;;;;;2.30;1.00;;;;;;;19.03;100.00;97710.50;6123108;23;20174;-83
2023/10/26 10:19:20;;;;;;;2.07;1.10;;;;;;;19.23;100.00;97703.59;6123206;23;20174;-82
2023/10/26 10:21:49;;;;;;;1.33;1.00;;;;;;;19.24;100.00;97705.19;6123480;23;20533;-82
2023/10/26 10:24:44;;;;;;;1.40;1.10;;;;;;;19.32;100.00;97691.59;6123019;23;20205;-84
2023/10/26 10:27:13;;;;;;;2.97;1.30;;;;;;;19.18;100.00;97685.56;6123279;23;20199;-82
2023/10/26 10:29:55;;;;;;;1.67;1.33;;;;;;;19.10;100.00;97694.50;6100873;23;20228;-82
2023/10/26 10:32:44;;;;;;;1.67;1.10;;;;;;;18.92;100.00;97688.31;6123521;23;20199;-81
2023/10/26 10:35:21;;;;;;;1.40;1.20;;;;;;;18.76;100.00;97681.75;6124451;23;20178;-81
2023/10/26 10:38:15;;;;;;;1.87;0.90;;;;;;;18.59;100.00;97681.75;6123340;23;20175;-83
2023/10/26 10:40:57;;;;;;;1.83;1.40;;;;;;;18.31;100.00;97672.28;6124931;23;20152;-82
2023/10/26 10:43:45;;;;;;;1.10;1.00;;;;;;;18.14;100.00;97666.84;6124718;23;20164;-82
2023/10/26 10:46:26;;;;;;;2.37;1.00;;;;;;;17.95;100.00;97675.25;6101175;23;20250;-84
2023/10/26 10:49:05;;;;;;;2.50;1.10;;;;;;;17.82;100.00;97658.00;6100559;23;20193;-82
2023/10/26 10:51:41;;;;;;;1.00;0.90;;;;;;;17.80;100.00;97657.50;6122895;23;20621;-82
2023/10/26 10:54:11;;;;;;;1.70;1.07;;;;;;;17.76;100.00;97661.16;6075671;23;20740;-84
2023/10/26 10:56:58;;;;;;;1.20;1.00;;;;;;;17.79;100.00;97658.63;6103322;23;20613;-82
2023/10/26 10:59:30;;;;;;;1.83;1.00;;;;;;;17.89;100.00;97669.16;6098959;23;20257;-83
2023/10/26 11:02:12;;;;;;;0.70;0.70;;;;;;;17.95;100.00;97661.72;6075714;23;20176;-83
2023/10/26 11:05:04;;;;;;;0.80;0.80;;;;;;;17.99;100.00;97665.38;6099010;23;20233;-83
2023/10/26 11:07:47;;;;;;;2.13;1.00;;;;;;;18.04;100.00;97660.63;6101873;23;20231;-82
2023/10/26 11:10:26;;;;;;;0.97;0.77;;;;;;;18.11;100.00;97659.34;6101445;23;20159;-82
2023/10/26 11:12:56;;;;;;;1.07;0.90;;;;;;;18.19;100.00;97653.97;6098752;23;20273;-82
2023/10/26 11:15:39;;;;;;;1.67;0.90;;;;;;;18.37;100.00;97646.63;6102849;23;20169;-82
2023/10/26 11:18:09;;;;;;;1.07;0.80;;;;;;;18.55;100.00;97650.97;6101364;23;20201;-82
2023/10/26 11:20:37;;;;;;;1.30;0.90;;;;;;;18.79;100.00;97647.78;6124640;23;20252;-81
2023/10/26 11:23:14;;;;;;;2.90;0.90;;;;;;;19.08;100.00;97644.41;6124173;23;20221;-81
2023/10/26 11:25:42;;;;;;;0.70;0.70;;;;;;;19.47;100.00;97648.78;6101154;23;20200;-82
2023/10/26 11:28:10;;;;;;;2.10;0.93;;;;;;;19.79;100.00;97646.25;6125066;23;20237;-83
2023/10/26 11:30:52;;;;;;;1.10;0.87;;;;;;;19.91;100.00;97645.56;6100420;23;20570;-82
2023/10/26 11:33:35;;;;;;;1.10;1.00;;;;;;;19.92;100.00;97627.34;6100658;23;20278;-84
2023/10/26 11:36:10;;;;;;;1.70;0.93;;;;;;;19.66;100.00;97644.56;6124646;23;20186;-81
2023/10/26 11:38:51;;;;;;;1.27;0.80;;;;;;;19.38;100.00;97651.50;6100579;23;20161;-82
2023/10/26 11:41:25;;;;;;;1.03;0.83;;;;;;;19.01;100.00;97646.78;6101048;23;20172;-81
2023/10/26 11:43:52;;;;;;;0.70;0.70;;;;;;;18.78;100.00;97649.69;6100227;23;20630;-81
2023/10/26 11:46:36;;;;;;;1.07;0.87;;;;;;;18.54;100.00;97641.25;6126601;23;20649;-81